Time;durP1;ratioP1;P1;durP2;ratioP2;P2;SDS_P1;SDS_P2;PMS_P1;PMS_P2;Temp;Humidity;BMP_temperature;BMP_pressure;BME280_temperature;BME280_humidity;BME280_pressure;Samples;Min_cycle;Max_cycle;Signal;HPM_P1;HPM_P2
2022/10/17 00:01:41;;;;;;;13.40;3.08;;;;;;;12.08;100.00;96874.56;5037768;28;20887;-72
2022/10/17 00:04:07;;;;;;;5.03;2.90;;;;;;;11.94;100.00;96875.25;5036552;28;20198;-73
2022/10/17 00:06:35;;;;;;;7.10;2.70;;;;;;;11.98;100.00;96872.13;5037670;28;20213;-74
2022/10/17 00:09:02;;;;;;;5.53;2.93;;;;;;;11.96;100.00;96874.09;5037932;28;20252;-73
2022/10/17 00:11:29;;;;;;;6.93;2.90;;;;;;;12.02;100.00;96877.91;5036913;28;20728;-73
2022/10/17 00:13:56;;;;;;;8.50;2.50;;;;;;;11.95;100.00;96871.63;5036582;28;20696;-73
2022/10/17 00:16:24;;;;;;;5.77;3.07;;;;;;;12.02;100.00;96877.91;5037777;28;20216;-73
2022/10/17 00:18:51;;;;;;;5.97;2.37;;;;;;;11.96;100.00;96879.38;5037324;28;20585;-73
2022/10/17 00:21:19;;;;;;;7.55;2.67;;;;;;;11.97;100.00;96878.38;5037248;28;20224;-74
2022/10/17 00:23:46;;;;;;;6.33;2.70;;;;;;;11.92;100.00;96888.63;5036559;28;20197;-73
2022/10/17 00:26:13;;;;;;;9.50;1.93;;;;;;;11.95;100.00;96883.03;5037418;28;20204;-74
2022/10/17 00:28:41;;;;;;;8.33;2.87;;;;;;;12.06;100.00;96887.13;5037192;28;20201;-73
2022/10/17 00:31:08;;;;;;;4.60;2.57;;;;;;;12.02;100.00;96891.09;5037371;28;20228;-73
2022/10/17 00:33:36;;;;;;;4.07;2.57;;;;;;;12.00;100.00;96890.44;5036453;28;20288;-73
2022/10/17 00:36:04;;;;;;;6.03;3.20;;;;;;;12.10;100.00;96885.78;5037002;28;20197;-74
2022/10/17 00:38:30;;;;;;;5.57;2.33;;;;;;;11.92;100.00;96891.28;5035969;28;20288;-73
2022/10/17 00:40:57;;;;;;;5.47;2.60;;;;;;;11.86;100.00;96901.69;5037360;28;20577;-74
2022/10/17 00:43:23;;;;;;;7.67;3.03;;;;;;;11.75;100.00;96897.59;5036440;28;20212;-75
2022/10/17 00:45:51;;;;;;;6.87;3.00;;;;;;;11.62;100.00;96901.72;5036940;28;20197;-73
2022/10/17 00:48:19;;;;;;;5.93;3.13;;;;;;;11.71;100.00;96900.72;5034509;28;20209;-73
2022/10/17 00:50:48;;;;;;;5.47;2.93;;;;;;;11.70;100.00;96892.00;5036603;28;20220;-74
2022/10/17 00:53:16;;;;;;;6.47;3.00;;;;;;;11.64;100.00;96890.03;5036439;28;20201;-72
2022/10/17 00:55:48;;;;;;;8.23;2.83;;;;;;;11.72;100.00;96886.53;5037023;28;20388;-73
2022/10/17 00:58:15;;;;;;;4.93;2.83;;;;;;;11.64;100.00;96897.94;5037137;28;20254;-73
2022/10/17 01:00:43;;;;;;;7.17;2.33;;;;;;;11.67;100.00;96902.06;5036836;28;20216;-72
2022/10/17 01:03:11;;;;;;;6.80;2.90;;;;;;;11.64;100.00;96910.31;5036206;28;20272;-72
2022/10/17 01:05:39;;;;;;;6.10;2.73;;;;;;;11.63;100.00;96903.38;5036725;28;20216;-72
2022/10/17 01:08:06;;;;;;;5.63;2.67;;;;;;;11.57;100.00;96909.34;5036856;28;20204;-72
2022/10/17 01:10:39;;;;;;;6.87;2.63;;;;;;;11.63;100.00;96892.81;5036943;28;20733;-72
2022/10/17 01:13:14;;;;;;;7.77;2.63;;;;;;;11.70;100.00;96904.38;5042311;28;20217;-72
2022/10/17 01:15:51;;;;;;;3.83;2.37;;;;;;;11.69;100.00;96897.44;5042720;28;20208;-73
2022/10/17 01:18:31;;;;;;;7.20;2.60;;;;;;;11.67;100.00;96896.78;5043421;28;20204;-73
2022/10/17 01:21:27;;;;;;;6.13;2.23;;;;;;;11.63;100.00;96898.94;5043391;28;20200;-73
2022/10/17 01:24:30;;;;;;;6.10;2.33;;;;;;;11.65;100.00;96891.66;5038906;28;20201;-73
2022/10/17 01:27:22;;;;;;;5.20;2.40;;;;;;;11.65;100.00;96893.50;5043478;28;20204;-73
2022/10/17 01:30:08;;;;;;;4.80;2.33;;;;;;;11.51;100.00;96893.34;5030052;28;20224;-73
2022/10/17 01:32:38;;;;;;;3.30;2.40;;;;;;;11.45;100.00;96888.72;5042418;28;20672;-73
2022/10/17 01:35:12;;;;;;;12.83;2.87;;;;;;;11.41;100.00;96888.22;5043341;28;20224;-73
2022/10/17 01:37:46;;;;;;;4.47;2.50;;;;;;;11.42;100.00;96883.75;5042627;28;20696;-73
2022/10/17 01:40:17;;;;;;;3.73;2.10;;;;;;;11.37;100.00;96886.91;5043329;28;20677;-73
2022/10/17 01:42:48;;;;;;;3.27;2.17;;;;;;;11.35;100.00;96880.94;5042265;28;20230;-73
2022/10/17 01:45:22;;;;;;;2.73;2.00;;;;;;;11.41;100.00;96880.28;5043040;28;20203;-73
2022/10/17 01:47:53;;;;;;;5.17;2.03;;;;;;;11.31;100.00;96884.91;5043189;28;20197;-73
2022/10/17 01:50:24;;;;;;;8.63;2.00;;;;;;;11.33;100.00;96885.59;5043073;28;20228;-74
2022/10/17 01:52:55;;;;;;;5.70;1.80;;;;;;;11.30;100.00;96885.94;5042124;28;20231;-72
2022/10/17 01:55:26;;;;;;;6.13;2.30;;;;;;;11.22;100.00;96882.44;5042970;28;20212;-72
2022/10/17 01:57:57;;;;;;;3.27;2.10;;;;;;;11.21;100.00;96886.06;5041888;28;20209;-72
2022/10/17 02:00:27;;;;;;;4.40;2.23;;;;;;;11.33;100.00;96893.50;5042472;28;20694;-73
2022/10/17 02:03:00;;;;;;;1.97;1.60;;;;;;;11.31;100.00;96887.56;5041806;28;20340;-73
2022/10/17 02:05:31;;;;;;;5.00;1.97;;;;;;;11.13;100.00;96881.63;5042913;28;20208;-73
2022/10/17 02:07:58;;;;;;;4.77;1.83;;;;;;;11.01;100.00;96879.50;5042402;28;20205;-73
2022/10/17 02:10:32;;;;;;;3.17;1.83;;;;;;;11.13;100.00;96873.72;5043004;28;20254;-73
2022/10/17 02:13:05;;;;;;;3.00;2.03;;;;;;;11.13;100.00;96873.72;5041843;28;20591;-73
2022/10/17 02:16:00;;;;;;;2.53;1.83;;;;;;;11.05;100.00;96876.34;5042647;28;20203;-73
2022/10/17 02:18:47;;;;;;;2.73;1.80;;;;;;;11.10;100.00;96876.69;5042228;28;20201;-73
2022/10/17 02:21:20;;;;;;;2.73;1.80;;;;;;;11.00;100.00;96872.56;5042756;28;20861;-72
2022/10/17 02:23:53;;;;;;;4.87;1.87;;;;;;;11.00;100.00;96872.56;5038773;28;20212;-73
2022/10/17 02:26:23;;;;;;;5.57;2.20;;;;;;;10.88;100.00;96868.59;5039796;28;20201;-73
2022/10/17 02:29:02;;;;;;;4.27;1.80;;;;;;;10.85;100.00;96879.47;5039659;28;20211;-73
2022/10/17 02:31:33;;;;;;;4.10;1.80;;;;;;;10.85;100.00;96874.19;5039251;28;20225;-73
2022/10/17 02:34:04;;;;;;;2.50;1.80;;;;;;;10.77;100.00;96866.28;5038829;28;20585;-73
2022/10/17 02:36:38;;;;;;;2.60;1.67;;;;;;;10.74;100.00;96871.84;5040297;28;20198;-73
2022/10/17 02:39:08;;;;;;;2.40;1.80;;;;;;;10.58;100.00;96871.03;5038964;28;20205;-73
2022/10/17 02:41:37;;;;;;;2.23;1.67;;;;;;;10.59;100.00;96877.94;5038977;28;20213;-72
2022/10/17 02:44:06;;;;;;;2.07;1.73;;;;;;;10.62;100.00;96877.63;5038904;28;20198;-73
2022/10/17 02:46:54;;;;;;;2.97;1.80;;;;;;;10.63;100.00;96876.66;5038897;28;20201;-73
2022/10/17 02:49:25;;;;;;;2.87;2.00;;;;;;;10.73;100.00;96872.03;5038130;28;20205;-73
2022/10/17 02:51:59;;;;;;;3.07;1.80;;;;;;;10.59;100.00;96870.88;5039450;28;20229;-73
2022/10/17 02:54:33;;;;;;;2.30;1.70;;;;;;;10.52;100.00;96876.94;5038434;28;20207;-73
2022/10/17 02:57:07;;;;;;;2.63;1.80;;;;;;;10.57;100.00;96874.66;5038618;28;20208;-73
2022/10/17 02:59:36;;;;;;;2.53;1.80;;;;;;;10.65;100.00;96877.28;5038819;28;20211;-73
2022/10/17 03:02:04;;;;;;;3.60;2.13;;;;;;;10.58;100.00;96878.94;5038938;28;20225;-73
2022/10/17 03:04:32;;;;;;;3.23;2.03;;;;;;;10.45;100.00;96881.19;5038075;28;20752;-73
2022/10/17 03:06:59;;;;;;;3.67;1.90;;;;;;;10.36;100.00;96887.41;5038511;28;20764;-73
2022/10/17 03:09:25;;;;;;;4.80;1.87;;;;;;;10.44;100.00;96890.09;5038606;28;20564;-73
2022/10/17 03:11:52;;;;;;;3.57;2.33;;;;;;;10.31;100.00;96892.38;5038351;28;20236;-73
2022/10/17 03:14:18;;;;;;;5.53;2.20;;;;;;;10.33;100.00;96898.28;5038028;28;20202;-74
2022/10/17 03:16:45;;;;;;;3.80;2.30;;;;;;;10.38;100.00;96896.00;5038859;28;20209;-73
2022/10/17 03:19:11;;;;;;;3.87;2.10;;;;;;;10.46;100.00;96899.50;5038197;28;20207;-73
2022/10/17 03:21:39;;;;;;;4.43;2.10;;;;;;;10.42;100.00;96903.44;5038199;28;20231;-73
2022/10/17 03:24:07;;;;;;;4.60;2.17;;;;;;;10.46;100.00;96902.13;5037942;28;20201;-73
2022/10/17 03:26:33;;;;;;;4.23;2.37;;;;;;;10.36;100.00;96900.59;5037336;28;20201;-73
2022/10/17 03:29:00;;;;;;;4.13;2.30;;;;;;;10.36;100.00;96913.75;5038112;28;20197;-73
2022/10/17 03:31:26;;;;;;;5.93;2.67;;;;;;;10.37;100.00;96912.78;5038207;28;20694;-74
2022/10/17 03:33:52;;;;;;;3.27;1.97;;;;;;;10.34;100.00;96907.84;5037092;28;20220;-72
2022/10/17 03:36:20;;;;;;;4.47;2.00;;;;;;;10.33;100.00;96907.03;5037930;28;21101;-72
2022/10/17 03:38:48;;;;;;;5.43;1.93;;;;;;;10.30;100.00;96911.78;5038549;28;20207;-73
2022/10/17 03:41:14;;;;;;;6.80;1.90;;;;;;;10.24;100.00;96909.78;5037584;28;20228;-73
2022/10/17 03:43:41;;;;;;;5.87;1.93;;;;;;;10.19;100.00;96917.31;5037125;28;20216;-72
2022/10/17 03:46:08;;;;;;;2.27;1.43;;;;;;;10.05;100.00;96930.25;5038336;28;20201;-73
2022/10/17 03:48:34;;;;;;;4.13;1.70;;;;;;;9.95;100.00;96933.00;5037848;28;20213;-73
2022/10/17 03:51:02;;;;;;;2.87;1.80;;;;;;;10.13;100.00;96932.94;5037211;28;20221;-73
2022/10/17 03:53:29;;;;;;;6.17;1.90;;;;;;;9.96;100.00;96933.84;5036989;28;20201;-72
2022/10/17 03:55:57;;;;;;;4.90;2.03;;;;;;;10.13;100.00;96941.69;5038490;28;20197;-73
2022/10/17 03:58:24;;;;;;;2.17;1.57;;;;;;;10.02;100.00;96941.94;5037550;28;20197;-73
2022/10/17 04:00:51;;;;;;;2.67;1.80;;;;;;;10.05;100.00;96941.59;5037309;28;20204;-73
2022/10/17 04:03:17;;;;;;;2.47;1.83;;;;;;;10.11;100.00;96946.25;5037390;28;20232;-73
2022/10/17 04:05:44;;;;;;;6.40;1.80;;;;;;;10.14;100.00;96945.94;5037336;28;20205;-73
2022/10/17 04:08:10;;;;;;;3.17;1.93;;;;;;;10.10;100.00;96944.59;5037075;28;20204;-73
2022/10/17 04:10:37;;;;;;;5.87;2.10;;;;;;;9.99;100.00;96937.00;5037876;28;20410;-73
2022/10/17 04:13:05;;;;;;;4.80;2.40;;;;;;;9.89;100.00;96943.28;5036534;28;20221;-72
2022/10/17 04:15:31;;;;;;;3.93;2.13;;;;;;;9.76;100.00;96942.88;5036942;28;20658;-72
2022/10/17 04:17:58;;;;;;;4.50;2.77;;;;;;;9.74;100.00;96945.69;5037863;28;20201;-73
2022/10/17 04:20:24;;;;;;;3.60;2.60;;;;;;;9.73;100.00;96941.38;5037295;28;20197;-73
2022/10/17 04:22:51;;;;;;;5.30;2.43;;;;;;;9.78;100.00;96941.75;5036096;28;20733;-73
2022/10/17 04:25:17;;;;;;;8.00;2.47;;;;;;;9.87;100.00;96940.81;5037530;28;20201;-73
2022/10/17 04:27:44;;;;;;;8.37;3.17;;;;;;;10.01;100.00;96936.81;5036997;28;20201;-72
2022/10/17 04:30:12;;;;;;;5.10;3.07;;;;;;;10.25;100.00;96940.41;5036724;28;20308;-73
2022/10/17 04:32:39;;;;;;;8.57;3.30;;;;;;;10.19;100.00;96940.22;5036420;28;20229;-73
2022/10/17 04:35:06;;;;;;;5.70;3.13;;;;;;;10.26;100.00;96938.59;5037099;28;20829;-72
2022/10/17 04:37:33;;;;;;;5.30;3.50;;;;;;;10.22;100.00;96932.81;5036470;28;20751;-72
2022/10/17 04:39:59;;;;;;;10.33;3.17;;;;;;;10.20;100.00;96932.16;5036863;28;20201;-73
2022/10/17 04:42:28;;;;;;;4.67;2.70;;;;;;;10.24;100.00;96941.38;5035980;28;20228;-73
2022/10/17 04:44:54;;;;;;;4.97;2.70;;;;;;;10.23;100.00;96939.72;5036499;28;20209;-72
2022/10/17 04:47:22;;;;;;;7.70;2.60;;;;;;;10.25;100.00;96943.03;5036373;28;20205;-73
2022/10/17 04:49:49;;;;;;;9.87;2.80;;;;;;;10.30;100.00;96950.44;5036851;28;20251;-73
2022/10/17 04:52:15;;;;;;;8.40;2.97;;;;;;;10.27;100.00;96953.41;5035990;28;20229;-74
2022/10/17 04:54:42;;;;;;;8.83;2.50;;;;;;;10.27;100.00;96951.59;5036713;28;20198;-72
2022/10/17 04:57:09;;;;;;;3.80;2.50;;;;;;;10.17;100.00;96956.19;5037394;28;20244;-72
2022/10/17 04:59:35;;;;;;;8.80;2.63;;;;;;;10.15;100.00;96959.94;5036616;28;21152;-73
2022/10/17 05:02:02;;;;;;;5.57;3.00;;;;;;;9.95;100.00;96961.09;5036790;28;20217;-72
2022/10/17 05:04:29;;;;;;;4.17;2.47;;;;;;;10.00;100.00;96956.22;5035614;28;20754;-73
2022/10/17 05:06:56;;;;;;;6.93;2.77;;;;;;;10.08;100.00;96966.81;5036759;28;20201;-73
2022/10/17 05:09:22;;;;;;;8.40;3.10;;;;;;;10.07;100.00;96962.50;5037363;28;20207;-73
2022/10/17 05:11:49;;;;;;;3.70;2.50;;;;;;;10.10;100.00;96964.84;5036388;28;20225;-73
2022/10/17 05:14:15;;;;;;;10.17;3.13;;;;;;;10.07;100.00;96955.47;5035469;28;20201;-72
2022/10/17 05:16:42;;;;;;;4.83;3.17;;;;;;;10.05;100.00;96959.22;5036888;28;20216;-72
2022/10/17 05:19:09;;;;;;;8.50;2.97;;;;;;;10.16;100.00;96967.69;5036251;28;20203;-72
2022/10/17 05:21:37;;;;;;;6.40;3.10;;;;;;;10.18;100.00;96965.69;5036091;28;20239;-72
2022/10/17 05:24:05;;;;;;;13.43;4.13;;;;;;;10.17;100.00;96969.34;5036210;28;20227;-72
2022/10/17 05:26:32;;;;;;;7.07;3.30;;;;;;;10.14;100.00;96966.19;5036637;28;20193;-72
2022/10/17 05:29:01;;;;;;;12.37;3.20;;;;;;;10.24;100.00;96957.19;5036319;28;20207;-73
2022/10/17 05:31:28;;;;;;;8.00;2.87;;;;;;;10.13;100.00;96954.00;5035435;28;20227;-72
2022/10/17 05:33:55;;;;;;;5.17;3.00;;;;;;;10.07;100.00;96952.81;5036441;28;20205;-73
2022/10/17 05:36:21;;;;;;;8.97;2.80;;;;;;;10.12;100.00;96953.19;5036228;28;20212;-73
2022/10/17 05:38:50;;;;;;;6.53;2.80;;;;;;;10.13;100.00;96962.75;5036233;28;20201;-73
2022/10/17 05:41:18;;;;;;;7.67;3.13;;;;;;;10.09;100.00;96964.00;5036419;28;20213;-72
2022/10/17 05:43:44;;;;;;;4.70;2.70;;;;;;;10.01;100.00;96971.88;5035882;28;20209;-73
2022/10/17 05:46:11;;;;;;;5.00;3.13;;;;;;;10.12;100.00;96983.94;5036312;28;20659;-72
2022/10/17 05:48:37;;;;;;;6.27;3.17;;;;;;;10.10;100.00;96976.19;5036180;28;20263;-72
2022/10/17 05:51:07;;;;;;;5.43;2.67;;;;;;;10.22;100.00;96980.25;5036297;28;20237;-72
2022/10/17 05:53:36;;;;;;;11.00;2.80;;;;;;;10.09;100.00;96990.34;5035370;28;20233;-72
2022/10/17 05:56:07;;;;;;;7.87;3.20;;;;;;;10.03;100.00;96988.34;5036278;28;20208;-72
2022/10/17 05:58:34;;;;;;;4.30;2.77;;;;;;;9.94;100.00;96986.63;5038394;28;20216;-72
2022/10/17 06:01:02;;;;;;;11.13;3.03;;;;;;;10.03;100.00;96992.78;5039268;28;20621;-72
2022/10/17 06:03:29;;;;;;;5.60;2.80;;;;;;;9.97;100.00;97002.13;5036112;28;20204;-72
2022/10/17 06:05:55;;;;;;;6.13;3.30;;;;;;;9.96;100.00;97010.19;5039581;28;20244;-73
2022/10/17 06:08:22;;;;;;;8.63;2.73;;;;;;;9.95;100.00;97017.25;5039402;28;20198;-73
2022/10/17 06:10:49;;;;;;;5.17;2.80;;;;;;;9.99;100.00;97015.13;5039101;28;20701;-72
2022/10/17 06:13:18;;;;;;;8.60;3.23;;;;;;;10.00;100.00;97007.06;5038591;28;20217;-73
2022/10/17 06:15:44;;;;;;;11.00;3.47;;;;;;;9.94;100.00;97012.09;5035508;28;21051;-73
2022/10/17 06:18:12;;;;;;;4.77;2.80;;;;;;;10.04;100.00;97008.44;5037545;28;20700;-73
2022/10/17 06:20:38;;;;;;;6.30;2.97;;;;;;;10.08;100.00;97014.19;5039265;28;20200;-73
2022/10/17 06:23:05;;;;;;;8.33;2.80;;;;;;;10.14;100.00;97003.88;5037803;28;20220;-73
2022/10/17 06:25:31;;;;;;;8.73;4.33;;;;;;;10.17;100.00;97008.84;5036268;28;20250;-71
2022/10/17 06:27:58;;;;;;;6.50;3.63;;;;;;;10.25;100.00;97006.25;5038744;28;20212;-72
2022/10/17 06:30:26;;;;;;;7.30;3.27;;;;;;;10.46;100.00;97019.84;5039315;28;20219;-72
2022/10/17 06:32:52;;;;;;;8.47;3.50;;;;;;;10.37;100.00;97021.63;5038469;28;20610;-72
2022/10/17 06:35:19;;;;;;;7.17;3.10;;;;;;;10.45;100.00;97021.69;5038939;28;20205;-73
2022/10/17 06:37:46;;;;;;;6.70;3.60;;;;;;;10.55;100.00;97025.03;5039989;28;20205;-72
2022/10/17 06:40:14;;;;;;;7.57;3.20;;;;;;;10.66;100.00;97018.63;5040200;28;20209;-72
2022/10/17 06:42:41;;;;;;;9.37;3.00;;;;;;;10.78;100.00;97025.25;5039181;28;20846;-72
2022/10/17 06:45:09;;;;;;;10.47;3.27;;;;;;;10.83;100.00;97017.72;5038370;28;20220;-72
2022/10/17 06:47:37;;;;;;;7.67;2.90;;;;;;;10.91;100.00;97025.63;5037454;28;20296;-72
2022/10/17 06:50:03;;;;;;;5.60;2.80;;;;;;;10.89;100.00;97025.00;5036086;28;20216;-72
2022/10/17 06:52:30;;;;;;;6.00;3.50;;;;;;;10.96;100.00;97025.00;5037639;28;20236;-72
2022/10/17 06:54:56;;;;;;;8.23;3.33;;;;;;;11.05;100.00;97028.50;5038139;28;20304;-72
2022/10/17 06:57:23;;;;;;;11.50;3.47;;;;;;;11.16;100.00;97031.66;5038180;28;20198;-72
2022/10/17 06:59:49;;;;;;;9.57;3.53;;;;;;;11.24;100.00;97033.47;5037485;28;20208;-72
2022/10/17 07:02:16;;;;;;;4.90;3.10;;;;;;;11.46;100.00;97038.97;5037859;28;20224;-72
2022/10/17 07:04:45;;;;;;;5.80;3.43;;;;;;;11.77;100.00;97053.22;5036170;28;20205;-72
2022/10/17 07:07:12;;;;;;;7.70;3.80;;;;;;;11.72;100.00;97050.25;5037201;28;20220;-72
2022/10/17 07:09:38;;;;;;;7.37;3.53;;;;;;;11.84;100.00;97048.94;5036609;28;20566;-72
2022/10/17 07:12:07;;;;;;;12.83;3.87;;;;;;;11.98;100.00;97050.94;5037938;28;20240;-72
2022/10/17 07:14:33;;;;;;;7.80;3.77;;;;;;;11.90;100.00;97054.38;5037563;28;20251;-72
2022/10/17 07:17:01;;;;;;;5.17;3.30;;;;;;;11.90;100.00;97058.81;5037558;28;20212;-72
2022/10/17 07:19:27;;;;;;;10.90;3.70;;;;;;;12.00;100.00;97064.78;5037593;28;20202;-72
2022/10/17 07:21:55;;;;;;;6.80;3.37;;;;;;;12.15;100.00;97068.41;5036922;28;20224;-72
2022/10/17 07:24:22;;;;;;;5.23;3.03;;;;;;;12.15;100.00;97074.50;5034314;28;20208;-72
2022/10/17 07:26:48;;;;;;;6.13;3.10;;;;;;;12.25;100.00;97073.34;5034414;28;20223;-72
2022/10/17 07:29:15;;;;;;;5.77;3.10;;;;;;;12.33;100.00;97078.63;5036599;28;20247;-72
2022/10/17 07:31:42;;;;;;;5.03;2.93;;;;;;;12.34;100.00;97069.69;5036635;28;20240;-72
2022/10/17 07:34:08;;;;;;;6.97;3.30;;;;;;;12.43;100.00;97073.97;5036787;28;20211;-72
2022/10/17 07:36:35;;;;;;;12.10;2.73;;;;;;;12.45;100.00;97073.81;5035246;28;20845;-72
2022/10/17 07:39:03;;;;;;;4.77;3.00;;;;;;;12.60;100.00;97072.97;5036992;28;20235;-71
2022/10/17 07:41:29;;;;;;;4.83;2.90;;;;;;;12.61;100.00;97071.94;5037601;28;20224;-72
2022/10/17 07:43:56;;;;;;;8.07;2.90;;;;;;;12.60;100.00;97075.59;5036616;28;20202;-72
2022/10/17 07:46:23;;;;;;;5.80;3.30;;;;;;;12.66;100.00;97085.47;5037694;28;20316;-72
2022/10/17 07:48:50;;;;;;;10.83;3.40;;;;;;;12.69;100.00;97085.16;5037238;28;20555;-72
2022/10/17 07:51:17;;;;;;;4.93;2.73;;;;;;;12.79;100.00;97080.47;5037194;28;20229;-72
2022/10/17 07:53:44;;;;;;;6.67;3.00;;;;;;;12.80;100.00;97072.41;5035521;28;20291;-72
2022/10/17 07:56:12;;;;;;;6.70;3.77;;;;;;;13.07;100.00;97081.75;5038175;28;20212;-72
2022/10/17 07:58:39;;;;;;;7.33;3.67;;;;;;;13.19;100.00;97083.03;5035381;28;20205;-72
2022/10/17 08:01:07;;;;;;;9.07;3.73;;;;;;;13.23;100.00;97085.16;5037877;28;20221;-72
2022/10/17 08:03:34;;;;;;;7.37;3.90;;;;;;;13.31;100.00;97089.59;5035299;28;20201;-73
2022/10/17 08:06:01;;;;;;;4.95;3.30;;;;;;;13.52;100.00;97088.78;5039061;28;20737;-72
2022/10/17 08:08:29;;;;;;;8.68;3.40;;;;;;;13.58;100.00;97085.47;5038638;28;20201;-72
2022/10/17 08:10:56;;;;;;;6.50;3.60;;;;;;;13.75;100.00;97096.78;5037880;28;20201;-73
2022/10/17 08:13:24;;;;;;;6.18;3.28;;;;;;;13.81;100.00;97102.19;5038185;28;20575;-73
2022/10/17 08:15:50;;;;;;;7.28;3.65;;;;;;;13.80;100.00;97097.91;5038496;28;20237;-72
2022/10/17 08:18:17;;;;;;;10.03;3.60;;;;;;;13.94;100.00;97094.47;5036074;28;20205;-73
2022/10/17 08:20:44;;;;;;;9.00;3.10;;;;;;;14.05;100.00;97094.91;5035072;28;20217;-72
2022/10/17 08:23:10;;;;;;;8.52;3.50;;;;;;;14.15;100.00;97106.13;5035235;28;20193;-72
2022/10/17 08:25:38;;;;;;;5.15;3.55;;;;;;;14.24;100.00;97098.91;5036874;28;20204;-72
2022/10/17 08:28:05;;;;;;;5.13;3.00;;;;;;;14.22;100.00;97096.44;5036467;28;20740;-73
2022/10/17 08:30:33;;;;;;;4.25;2.80;;;;;;;14.25;100.00;97105.88;5037187;28;20201;-72
2022/10/17 08:33:00;;;;;;;5.60;3.40;;;;;;;14.41;100.00;97100.41;5034691;28;20229;-72
2022/10/17 08:35:27;;;;;;;6.78;3.60;;;;;;;14.58;100.00;97101.94;5034832;28;20573;-72
2022/10/17 08:37:53;;;;;;;7.88;4.18;;;;;;;14.62;100.00;97098.72;5034859;28;20208;-73
2022/10/17 08:40:24;;;;;;;7.40;3.45;;;;;;;14.66;100.00;97095.53;5035517;28;20201;-72
2022/10/17 08:43:17;;;;;;;5.55;3.13;;;;;;;14.99;100.00;97096.81;5034996;28;20232;-72
2022/10/17 08:45:50;;;;;;;8.20;3.65;;;;;;;15.11;100.00;97099.81;5035467;28;20402;-73
2022/10/17 08:48:20;;;;;;;10.55;3.35;;;;;;;15.19;100.00;97094.44;5036317;28;20580;-72
2022/10/17 08:50:52;;;;;;;5.53;3.15;;;;;;;15.29;100.00;97079.91;5035460;28;20197;-73
2022/10/17 08:53:22;;;;;;;5.95;3.50;;;;;;;15.50;100.00;97080.78;5035081;28;20217;-72
2022/10/17 08:55:51;;;;;;;5.32;2.90;;;;;;;15.60;100.00;97075.16;5035136;28;20252;-72
2022/10/17 08:58:22;;;;;;;7.18;3.47;;;;;;;15.73;100.00;97080.63;5034175;28;20205;-72
2022/10/17 09:01:00;;;;;;;9.45;4.15;;;;;;;16.01;100.00;97082.34;5034202;28;20688;-72
2022/10/17 09:03:51;;;;;;;10.15;4.35;;;;;;;16.00;100.00;97084.19;5034269;28;20568;-73
2022/10/17 09:06:23;;;;;;;8.75;4.32;;;;;;;16.13;100.00;97086.16;5035704;28;20201;-73
2022/10/17 09:09:02;;;;;;;14.65;4.47;;;;;;;16.34;100.00;97080.84;5034402;28;20197;-72
2022/10/17 09:11:52;;;;;;;9.15;4.32;;;;;;;16.45;100.00;97078.47;5033984;28;20712;-72
2022/10/17 09:14:34;;;;;;;13.43;5.00;;;;;;;16.54;100.00;97077.31;5033706;28;20581;-73
2022/10/17 09:17:15;;;;;;;13.82;3.63;;;;;;;16.71;100.00;97087.50;5033872;28;20201;-73
2022/10/17 09:19:46;;;;;;;5.40;3.22;;;;;;;16.86;100.00;97082.84;5034635;28;20201;-72
2022/10/17 09:22:18;;;;;;;8.55;2.90;;;;;;;17.00;99.50;97081.94;5033994;28;20224;-73
2022/10/17 09:24:48;;;;;;;7.25;3.22;;;;;;;17.04;97.31;97079.69;5034457;28;20220;-73
2022/10/17 09:27:23;;;;;;;8.52;2.97;;;;;;;17.17;99.88;97077.91;5033733;28;20201;-72
2022/10/17 09:29:55;;;;;;;5.30;2.85;;;;;;;17.27;99.42;97087.25;5034307;28;20254;-72
2022/10/17 09:32:25;;;;;;;7.68;2.88;;;;;;;17.12;98.38;97083.84;5034256;28;20227;-73
2022/10/17 09:34:52;;;;;;;5.30;2.75;;;;;;;17.28;99.78;97086.19;5039186;28;20197;-73
2022/10/17 09:37:22;;;;;;;5.03;2.72;;;;;;;17.41;98.56;97091.63;5038569;28;20240;-73
2022/10/17 09:39:49;;;;;;;5.82;2.85;;;;;;;17.52;99.72;97090.22;5038113;28;20212;-73
2022/10/17 09:42:20;;;;;;;6.13;3.40;;;;;;;17.55;99.29;97090.63;5038366;28;20217;-72
2022/10/17 09:44:51;;;;;;;5.88;2.45;;;;;;;17.69;98.58;97097.66;5036704;28;20205;-73
2022/10/17 09:47:29;;;;;;;5.95;3.45;;;;;;;17.81;100.00;97101.41;5038413;28;20193;-72
2022/10/17 09:49:56;;;;;;;6.25;3.33;;;;;;;17.73;98.62;97099.72;5039245;28;20926;-74
2022/10/17 09:52:28;;;;;;;7.07;3.15;;;;;;;17.80;99.67;97095.22;5039013;28;20224;-73
2022/10/17 09:54:59;;;;;;;10.50;2.90;;;;;;;17.95;99.80;97093.22;5038830;28;20208;-73
2022/10/17 09:57:26;;;;;;;10.43;5.70;;;;;;;18.09;97.69;97099.44;5039435;28;20557;-73
2022/10/17 09:59:59;;;;;;;5.63;3.60;;;;;;;18.36;96.76;97091.28;5039347;28;20201;-73
2022/10/17 10:02:28;;;;;;;7.53;3.25;;;;;;;18.54;94.60;97096.81;5038220;28;20224;-72
2022/10/17 10:05:00;;;;;;;6.07;2.75;;;;;;;18.45;92.34;97103.41;5039383;28;20208;-72
2022/10/17 10:07:30;;;;;;;9.20;2.80;;;;;;;18.55;93.15;97101.94;5039095;28;20236;-73
2022/10/17 10:09:58;;;;;;;6.18;3.17;;;;;;;18.62;92.71;97108.13;5039269;28;21021;-73
2022/10/17 10:12:26;;;;;;;5.93;3.08;;;;;;;18.54;94.55;97110.16;5038176;28;20229;-73
2022/10/17 10:14:53;;;;;;;9.75;3.08;;;;;;;18.67;94.83;97110.16;5040044;28;20201;-72
2022/10/17 10:17:40;;;;;;;7.80;3.13;;;;;;;19.00;92.92;97104.59;5039242;28;20236;-73
2022/10/17 10:20:26;;;;;;;4.70;2.70;;;;;;;19.12;92.09;97094.13;5039564;28;21075;-74
2022/10/17 10:23:14;;;;;;;9.85;3.28;;;;;;;19.09;90.90;97102.56;5039010;28;20221;-72
2022/10/17 10:25:53;;;;;;;5.70;2.80;;;;;;;19.17;91.94;97103.16;5038205;28;20208;-73
2022/10/17 10:28:20;;;;;;;5.20;2.58;;;;;;;19.22;92.75;97103.34;5037437;28;20232;-73
2022/10/17 10:30:50;;;;;;;4.53;2.53;;;;;;;19.21;92.00;97099.03;5040078;28;20209;-73
2022/10/17 10:33:19;;;;;;;4.75;2.70;;;;;;;19.21;92.99;97104.38;5037235;28;20285;-73
2022/10/17 10:35:55;;;;;;;5.75;3.20;;;;;;;19.26;93.10;97099.22;5038582;28;20219;-73
2022/10/17 10:38:21;;;;;;;5.38;2.80;;;;;;;19.19;93.55;97100.28;5039186;28;20208;-73
2022/10/17 10:40:50;;;;;;;9.60;3.33;;;;;;;19.46;94.02;97097.31;5039252;28;20678;-73
2022/10/17 10:43:29;;;;;;;8.80;3.00;;;;;;;19.49;91.38;97096.91;5038330;28;20193;-74
2022/10/17 10:45:56;;;;;;;9.38;3.25;;;;;;;19.50;93.68;97097.72;5037828;28;20216;-73
2022/10/17 10:48:26;;;;;;;5.38;2.70;;;;;;;19.59;93.39;97098.09;5038615;28;20209;-73
2022/10/17 10:50:57;;;;;;;3.58;2.67;;;;;;;19.87;92.69;97101.25;5038961;28;20573;-73
2022/10/17 10:53:41;;;;;;;5.45;2.35;;;;;;;19.95;91.10;97098.34;5035045;28;20221;-73
2022/10/17 10:56:14;;;;;;;8.55;2.78;;;;;;;20.01;91.92;97102.88;5035820;28;21333;-72
2022/10/17 10:58:49;;;;;;;6.65;3.13;;;;;;;20.05;92.40;97103.22;5037985;28;20521;-73
2022/10/17 11:01:22;;;;;;;5.63;2.42;;;;;;;20.06;90.74;97103.03;5038239;28;20227;-73
2022/10/17 11:04:05;;;;;;;4.22;2.20;;;;;;;20.22;89.42;97097.16;5037999;28;20219;-73
2022/10/17 11:06:37;;;;;;;6.47;2.38;;;;;;;20.27;90.41;97094.66;5039285;28;21120;-72
2022/10/17 11:09:14;;;;;;;6.25;2.58;;;;;;;20.25;89.12;97088.69;5037838;28;20204;-74
2022/10/17 11:11:44;;;;;;;5.75;2.33;;;;;;;20.15;90.64;97091.06;5038253;28;20224;-73
2022/10/17 11:14:18;;;;;;;4.95;2.35;;;;;;;20.22;91.23;97091.81;5037456;28;20316;-73
2022/10/17 11:16:50;;;;;;;3.63;2.15;;;;;;;20.29;89.61;97084.56;5038388;28;20620;-73
2022/10/17 11:19:24;;;;;;;5.85;2.05;;;;;;;20.43;88.65;97078.06;5037483;28;20201;-73
2022/10/17 11:22:05;;;;;;;4.20;2.03;;;;;;;20.53;89.41;97078.41;5037275;28;20221;-73
2022/10/17 11:24:38;;;;;;;2.60;1.85;;;;;;;20.41;84.07;97074.78;5037740;28;20197;-73
2022/10/17 11:27:06;;;;;;;2.78;1.80;;;;;;;20.45;85.00;97073.31;5037618;28;20918;-73
2022/10/17 11:29:35;;;;;;;6.40;2.10;;;;;;;20.43;85.87;97080.75;5036776;28;20206;-74
2022/10/17 11:32:06;;;;;;;6.03;2.10;;;;;;;20.26;86.08;97076.97;5036831;28;20225;-74
2022/10/17 11:34:39;;;;;;;8.75;1.90;;;;;;;20.54;83.34;97072.00;5037455;28;20666;-73
2022/10/17 11:37:13;;;;;;;3.33;2.45;;;;;;;20.42;86.35;97071.91;5037606;28;20221;-72
2022/10/17 11:39:47;;;;;;;5.82;2.15;;;;;;;20.65;84.54;97077.47;5037980;28;20205;-74